Hampton, VA

12:22 EST le 26 février 2017 (GMT -0500)
Langley Air Force Base | | Change Station

Alt. 10 ft 37.08 °N, 76.36 °W | Updated 24 minutes ago

Ciel dégagé
Ciel dégagé
47 ° F
Paraît 47 ° F
N
6
Vent Variable Vent de Ouest

Aujourd'hui
Haut(e) -- | Bas -- ° F
--% Risque de précip.
Hier
Haut(e) -- | Bas -- ° F
Precip. -- pouce
Pression 30.18 pouce
Visibilité 10.0 Miles terrestres
Nuages Ciel dégagé
Point de rosée 26 ° F
Humidité 44%
Précipitations 0.00 pouce
Profondeur de la couche neigeuse Non disponible.
6:40 AM 5:56 PM
Nouvelle lune, 0% visible
METAR KLFI 261658Z AUTO 28005KT 10SM CLR 08/M03 A3016 RMK AO2 SLP220 T00841034 $
Pression 30.18 pouce
Visibilité 10.0 Miles terrestres
Nuages Ciel dégagé
Point de rosée 26 ° F
Humidité 44%
Précipitations 0.00 pouce
Profondeur de la couche neigeuse Non disponible.
6:40 AM 5:56 PM
Nouvelle lune, 0% visible
METAR KLFI 261658Z AUTO 28005KT 10SM CLR 08/M03 A3016 RMK AO2 SLP220 T00841034 $

Get Your Daily Forecast Email!

Thanks for signing up!

Be on the lookout for a verification email in your inbox.

You'll start receiving the daily forecast at 8 AM.

×

10-Day Weather Forecast

Almanac

Astronomie

Feb. 26, 2017 Lever Coucher
Temps réel
Crépuscule civil
Crépuscule nautique
Crépuscule astronomique
Lune
Durée de lumière visible
Longueur du jour
Tomorrow will be .
, % of the Moon is Illuminated

Extrêmes aujourd'hui

State Highs State Lows

Community

WunderPhotos

Upload Photos

1,962,540 Photos téléchargées !

WunderBlog® & News

Nearby

Qualité de l'air

  Qualité de l'air Indice de la qualité de l'air Polluant
Not available.

Épaisseur de neige

Station Depth Altitude

Activité sismique

Ville Distance Mag. Time & Date
Minimum magnitude displayed is 2.5.

Températures des eaux côtières

Lieu Température

Stations

Stations météo à proximité

Emplacement de la station Température Refroidissement éolien Point de rosée Humidité Vent Precip. Alt. Mise à jour Type
                   

Watches & Warnings

There are currently no watches in effect.